Time;durP1;ratioP1;P1;durP2;ratioP2;P2;SDS_P1;SDS_P2;PMS_P1;PMS_P2;Temp;Humidity;BMP_temperature;BMP_pressure;BME280_temperature;BME280_humidity;BME280_pressure;Samples;Min_cycle;Max_cycle;Signal;HPM_P1;HPM_P2
2023/05/02 00:00:50;;;;;;;16.60;9.13;;;;;;;13.30;74.94;100008.72;4918141;28;20052;-85
2023/05/02 00:03:17;;;;;;;15.55;9.25;;;;;;;13.31;74.71;100010.41;4926668;28;20478;-84
2023/05/02 00:05:44;;;;;;;14.10;8.75;;;;;;;13.34;74.64;100002.94;4932454;28;20062;-84
2023/05/02 00:08:11;;;;;;;18.15;9.73;;;;;;;13.29;75.27;100005.22;4935571;28;20068;-84
2023/05/02 00:10:38;;;;;;;16.63;10.68;;;;;;;13.30;75.44;100006.88;4921212;28;20216;-85
2023/05/02 00:13:05;;;;;;;12.65;8.80;;;;;;;13.33;75.34;100005.75;4921578;28;20054;-85
2023/05/02 00:15:32;;;;;;;16.50;10.23;;;;;;;13.25;75.53;99996.66;4919646;28;20044;-85
2023/05/02 00:17:59;;;;;;;16.75;9.70;;;;;;;13.33;75.25;100000.41;4934308;28;20055;-85
2023/05/02 00:20:26;;;;;;;19.20;11.15;;;;;;;13.32;74.78;100007.56;4921071;28;20128;-85
2023/05/02 00:22:55;;;;;;;18.15;9.50;;;;;;;13.36;74.82;100006.31;4921857;28;20139;-84
2023/05/02 00:25:22;;;;;;;14.77;9.73;;;;;;;13.37;74.80;100007.97;4917840;28;20068;-84
2023/05/02 00:27:49;;;;;;;16.30;10.00;;;;;;;13.29;75.88;100005.22;4921361;28;20055;-85
2023/05/02 00:30:17;;;;;;;18.38;9.18;;;;;;;13.23;76.21;100009.28;4904949;28;20126;-84
2023/05/02 00:32:44;;;;;;;15.15;9.63;;;;;;;13.21;76.69;100015.75;4903400;28;20075;-85
2023/05/02 00:35:11;;;;;;;17.80;9.25;;;;;;;13.23;76.35;100011.13;4933210;28;20052;-85
2023/05/02 00:37:38;;;;;;;19.17;10.57;;;;;;;13.27;76.01;100007.19;4906293;28;20409;-84
2023/05/02 00:40:06;;;;;;;16.67;10.02;;;;;;;13.28;76.16;100008.03;4925025;28;20584;-85
2023/05/02 00:42:35;;;;;;;16.65;9.70;;;;;;;13.24;75.88;100008.28;4934538;28;20052;-85
2023/05/02 00:45:05;;;;;;;13.80;9.35;;;;;;;13.25;76.54;100003.78;4933824;28;20047;-85
2023/05/02 00:47:33;;;;;;;17.35;10.15;;;;;;;13.23;76.90;100008.47;4897071;28;20603;-84
2023/05/02 00:50:00;;;;;;;15.23;9.30;;;;;;;13.17;77.34;100004.53;4918509;28;20063;-86
2023/05/02 00:52:28;;;;;;;16.77;10.45;;;;;;;13.22;76.73;99998.75;4918776;28;20047;-86
2023/05/02 00:54:55;;;;;;;15.63;10.15;;;;;;;13.21;76.44;100002.44;4902509;28;20209;-86
2023/05/02 00:57:24;;;;;;;15.57;9.70;;;;;;;13.20;76.30;100004.25;4910458;28;20055;-86
2023/05/02 00:59:51;;;;;;;17.80;10.20;;;;;;;13.24;75.88;100002.97;4903161;28;20048;-86
2023/05/02 01:02:35;;;;;;;16.58;9.70;;;;;;;13.17;76.58;100001.03;4902866;28;20051;-86
2023/05/02 01:05:14;;;;;;;17.65;9.68;;;;;;;13.08;76.81;100010.78;4899443;28;20051;-86
2023/05/02 01:08:07;;;;;;;17.23;9.70;;;;;;;12.95;77.31;100003.13;4920349;28;20047;-86
2023/05/02 01:11:16;;;;;;;16.52;9.70;;;;;;;13.01;76.90;100013.19;4919581;28;20461;-86
2023/05/02 01:13:46;;;;;;;19.13;10.77;;;;;;;13.08;76.15;100013.44;4901467;28;20564;-86
2023/05/02 01:16:14;;;;;;;17.17;10.15;;;;;;;13.07;76.32;100010.91;4913269;28;20450;-86
2023/05/02 01:18:42;;;;;;;17.17;9.88;;;;;;;13.01;76.63;100010.50;4915067;28;20062;-86
2023/05/02 01:21:09;;;;;;;16.55;10.80;;;;;;;13.04;76.29;100017.38;4890699;28;20158;-86
2023/05/02 01:23:56;;;;;;;18.15;10.50;;;;;;;12.83;76.59;100022.94;4935173;28;20055;-85
2023/05/02 01:26:34;;;;;;;19.45;11.05;;;;;;;12.90;76.49;100025.84;4902805;28;20052;-86
2023/05/02 01:29:02;;;;;;;20.20;10.07;;;;;;;12.90;76.16;100032.03;4897863;28;20062;-86
2023/05/02 01:31:38;;;;;;;19.58;10.13;;;;;;;12.83;76.10;100030.94;4933229;28;20138;-86
2023/05/02 01:34:11;;;;;;;15.82;9.98;;;;;;;12.83;76.38;100033.59;4916970;28;20516;-86
2023/05/02 01:36:42;;;;;;;17.08;9.35;;;;;;;12.82;76.22;100035.44;4913753;28;20462;-85
2023/05/02 01:39:13;;;;;;;17.10;10.05;;;;;;;12.85;76.15;100036.09;4918736;28;20055;-86
2023/05/02 01:41:40;;;;;;;20.95;11.23;;;;;;;12.86;76.15;100032.47;4933114;28;20051;-86
2023/05/02 01:44:08;;;;;;;15.23;9.60;;;;;;;12.81;76.08;100040.88;4916614;28;20520;-86
2023/05/02 01:46:38;;;;;;;17.85;10.38;;;;;;;12.77;75.84;100039.47;4917998;28;20052;-86
2023/05/02 01:49:06;;;;;;;15.88;9.65;;;;;;;12.76;75.73;100049.31;4901330;28;20055;-86
2023/05/02 01:51:35;;;;;;;19.38;10.40;;;;;;;12.71;75.80;100046.25;4915557;28;20146;-86
2023/05/02 01:54:07;;;;;;;22.52;10.90;;;;;;;12.65;76.17;100049.50;4915085;28;20562;-85
2023/05/02 01:56:35;;;;;;;17.97;10.10;;;;;;;12.74;76.06;100050.44;4922230;28;20049;-86
2023/05/02 01:59:07;;;;;;;21.13;11.02;;;;;;;12.66;76.11;100059.16;4902227;28;20453;-86
2023/05/02 02:01:36;;;;;;;19.57;10.00;;;;;;;12.59;76.89;100056.25;4917365;28;20047;-85
2023/05/02 02:04:05;;;;;;;15.25;9.75;;;;;;;12.65;76.59;100053.97;4919748;28;20071;-86
2023/05/02 02:06:32;;;;;;;16.25;9.82;;;;;;;12.61;77.00;100053.41;4905885;28;20047;-86
2023/05/02 02:09:00;;;;;;;16.63;10.45;;;;;;;12.61;76.54;100061.41;4916568;28;20134;-86
2023/05/02 02:11:35;;;;;;;16.17;9.68;;;;;;;12.61;76.95;100069.41;4895686;28;20067;-86
2023/05/02 02:14:06;;;;;;;19.63;10.63;;;;;;;12.56;77.06;100075.16;4902028;28;20062;-86
2023/05/02 02:16:37;;;;;;;20.25;10.80;;;;;;;12.58;77.21;100077.69;4932593;28;20151;-86
2023/05/02 02:19:06;;;;;;;23.30;11.88;;;;;;;12.67;76.88;100084.84;4915822;28;20428;-86
2023/05/02 02:21:35;;;;;;;20.08;9.43;;;;;;;12.74;76.54;100090.41;4914017;28;20047;-86
2023/05/02 02:24:03;;;;;;;15.82;10.30;;;;;;;12.74;76.66;100090.41;4913741;28;20139;-86
2023/05/02 02:26:30;;;;;;;17.67;11.55;;;;;;;12.74;76.93;100085.06;4903865;28;20508;-86
2023/05/02 02:28:57;;;;;;;19.08;10.38;;;;;;;12.67;77.33;100097.28;4919314;28;20057;-86
2023/05/02 02:31:29;;;;;;;19.92;10.50;;;;;;;12.64;77.34;100093.09;4935247;28;20111;-85
2023/05/02 02:33:56;;;;;;;17.73;10.02;;;;;;;12.60;77.95;100095.19;4896559;28;20052;-86
2023/05/02 02:36:32;;;;;;;15.10;9.77;;;;;;;12.64;78.33;100102.91;4909973;28;20206;-86
2023/05/02 02:39:13;;;;;;;19.15;10.43;;;;;;;12.74;77.41;100104.56;4892213;28;20126;-86
2023/05/02 02:42:02;;;;;;;16.10;10.02;;;;;;;12.65;78.13;100107.28;4929882;28;20075;-86
2023/05/02 02:44:43;;;;;;;14.60;10.82;;;;;;;12.55;78.80;100104.59;4903097;28;20497;-86
2023/05/02 02:47:41;;;;;;;18.08;10.45;;;;;;;12.47;79.17;100105.31;4931538;28;20054;-85
2023/05/02 02:50:30;;;;;;;18.90;10.60;;;;;;;12.58;78.91;100110.47;4912076;28;20494;-86
2023/05/02 02:53:05;;;;;;;18.85;10.55;;;;;;;12.65;78.77;100115.25;4931045;28;20052;-86
2023/05/02 02:55:46;;;;;;;21.13;10.52;;;;;;;12.69;78.30;100117.47;4901308;28;20047;-86
2023/05/02 02:58:28;;;;;;;19.70;10.98;;;;;;;12.57;77.54;100115.97;4902692;28;20133;-86
2023/05/02 03:00:55;;;;;;;20.48;12.02;;;;;;;12.75;77.46;100121.41;4916976;28;20052;-86
2023/05/02 03:03:27;;;;;;;16.52;10.32;;;;;;;12.75;77.53;100119.59;4926044;28;20220;-86
2023/05/02 03:05:56;;;;;;;20.60;10.68;;;;;;;12.78;76.93;100124.63;4929971;28;20051;-86
2023/05/02 03:08:23;;;;;;;21.85;10.77;;;;;;;12.77;76.98;100127.41;4913305;28;20047;-86
2023/05/02 03:10:50;;;;;;;17.48;10.23;;;;;;;12.71;77.28;100117.34;4916411;28;20051;-86
2023/05/02 03:13:18;;;;;;;18.45;10.07;;;;;;;12.75;76.88;100124.91;4914900;28;21538;-85
2023/05/02 03:15:52;;;;;;;18.13;10.77;;;;;;;12.74;77.08;100131.22;4919352;28;20086;-86
2023/05/02 03:18:26;;;;;;;19.45;10.40;;;;;;;12.72;77.47;100119.88;4903376;29;20051;-86
2023/05/02 03:20:53;;;;;;;20.25;10.38;;;;;;;12.80;76.99;100127.16;4916279;28;20159;-86
2023/05/02 03:23:20;;;;;;;21.35;10.70;;;;;;;12.74;77.23;100128.53;4902525;28;20548;-86
2023/05/02 03:25:48;;;;;;;21.65;10.02;;;;;;;12.78;77.09;100132.63;4923363;28;20047;-86
2023/05/02 03:28:20;;;;;;;19.27;10.40;;;;;;;12.73;78.05;100134.03;4914603;28;20107;-86
2023/05/02 03:30:48;;;;;;;20.08;10.73;;;;;;;12.81;77.15;100129.66;4928936;28;20051;-85
2023/05/02 03:33:15;;;;;;;20.13;10.70;;;;;;;12.77;77.11;100140.75;4918170;28;20048;-85
2023/05/02 03:35:44;;;;;;;19.45;10.50;;;;;;;12.85;76.36;100137.38;4902008;28;20126;-85
2023/05/02 03:38:12;;;;;;;20.88;10.88;;;;;;;12.81;76.19;100143.00;4923499;28;20052;-85
2023/05/02 03:40:39;;;;;;;15.88;9.82;;;;;;;12.73;76.81;100140.19;4930883;28;20055;-86
2023/05/02 03:43:10;;;;;;;19.38;11.05;;;;;;;12.66;77.25;100141.75;4937548;28;20044;-86
2023/05/02 03:45:37;;;;;;;18.50;10.40;;;;;;;12.69;77.33;100141.44;4940817;28;20048;-85
2023/05/02 03:48:05;;;;;;;23.92;10.45;;;;;;;12.68;77.61;100141.63;4938465;28;20131;-84
2023/05/02 03:50:32;;;;;;;19.30;10.30;;;;;;;12.61;77.98;100141.31;4921041;28;20059;-85
2023/05/02 03:52:59;;;;;;;22.55;10.70;;;;;;;12.62;78.24;100139.50;4918107;28;20068;-85
2023/05/02 03:55:39;;;;;;;18.55;11.05;;;;;;;12.55;79.05;100142.75;4922089;28;20111;-84
2023/05/02 03:58:10;;;;;;;20.80;11.60;;;;;;;12.60;78.41;100144.97;4916734;28;20050;-85
2023/05/02 04:00:39;;;;;;;22.45;12.80;;;;;;;12.63;77.97;100150.03;4888461;29;20467;-84
2023/05/02 04:03:07;;;;;;;20.90;10.98;;;;;;;12.72;77.27;100151.00;4888131;28;20200;-84
2023/05/02 04:05:38;;;;;;;21.98;11.48;;;;;;;12.74;77.24;100154.34;4935009;28;20579;-84
2023/05/02 04:08:06;;;;;;;22.48;10.43;;;;;;;12.65;77.78;100150.72;4910690;28;20075;-84
2023/05/02 04:10:32;;;;;;;17.88;11.00;;;;;;;12.67;77.82;100158.56;4915153;28;20039;-85
2023/05/02 04:13:02;;;;;;;21.05;10.80;;;;;;;12.60;78.18;100163.63;4939281;28;20062;-84
2023/05/02 04:15:30;;;;;;;15.77;10.27;;;;;;;12.54;78.65;100164.19;4935941;28;20058;-84
2023/05/02 04:17:58;;;;;;;21.48;11.68;;;;;;;12.54;78.32;100162.38;4919861;28;20556;-85
2023/05/02 04:20:25;;;;;;;21.30;11.27;;;;;;;12.55;78.49;100174.72;4901701;29;20111;-84
2023/05/02 04:22:54;;;;;;;23.60;11.60;;;;;;;12.49;78.86;100180.59;4903253;28;20039;-84
2023/05/02 04:25:21;;;;;;;21.83;10.40;;;;;;;12.52;78.66;100195.47;4902282;29;20517;-84
2023/05/02 04:27:50;;;;;;;20.17;11.15;;;;;;;12.42;79.01;100189.28;4890797;28;20048;-85
2023/05/02 04:30:20;;;;;;;19.95;10.95;;;;;;;12.44;78.94;100195.28;4906746;28;20044;-84
2023/05/02 04:32:57;;;;;;;21.27;11.00;;;;;;;12.39;79.51;100209.06;4895665;28;20052;-85
2023/05/02 04:35:27;;;;;;;20.50;10.82;;;;;;;12.33;79.82;100207.75;4920734;28;20051;-84
2023/05/02 04:37:54;;;;;;;21.83;11.32;;;;;;;12.40;79.16;100209.88;4922598;28;20064;-85
2023/05/02 04:40:22;;;;;;;20.50;11.02;;;;;;;12.42;79.15;100222.09;4923680;28;20064;-85
2023/05/02 04:42:56;;;;;;;25.08;11.40;;;;;;;12.48;79.17;100221.53;4923835;28;20047;-85
2023/05/02 04:45:26;;;;;;;30.10;11.73;;;;;;;12.40;79.51;100217.88;4917642;28;20614;-85
2023/05/02 04:47:53;;;;;;;22.10;12.73;;;;;;;12.52;79.41;100225.59;4924810;28;20505;-84
2023/05/02 04:50:20;;;;;;;19.45;12.13;;;;;;;12.50;79.73;100227.56;4917873;28;20048;-85
2023/05/02 04:52:47;;;;;;;21.08;11.43;;;;;;;12.57;79.35;100233.19;4928651;28;20048;-85
2023/05/02 04:55:14;;;;;;;23.67;11.98;;;;;;;12.57;79.34;100235.84;4930301;28;20478;-85
2023/05/02 04:57:42;;;;;;;33.50;15.23;;;;;;;12.59;78.97;100237.41;4918378;28;20821;-85
2023/05/02 05:00:13;;;;;;;30.00;12.38;;;;;;;12.59;78.97;100248.03;4910746;28;20126;-85
2023/05/02 05:02:40;;;;;;;25.73;12.75;;;;;;;12.56;79.20;100245.63;4907617;28;20052;-85
2023/05/02 05:05:09;;;;;;;26.15;13.68;;;;;;;12.55;79.68;100251.13;4918354;28;20405;-85
2023/05/02 05:07:36;;;;;;;27.15;12.68;;;;;;;12.59;79.84;100252.50;4922411;28;20071;-84
2023/05/02 05:10:03;;;;;;;24.92;13.30;;;;;;;12.64;80.12;100268.91;4918670;28;20139;-84
2023/05/02 05:12:39;;;;;;;18.85;11.15;;;;;;;12.55;80.90;100275.09;4936632;28;20501;-85
2023/05/02 05:15:08;;;;;;;23.05;11.88;;;;;;;12.57;80.63;100268.66;4914925;28;20138;-85
2023/05/02 05:17:35;;;;;;;27.17;12.13;;;;;;;12.52;80.98;100264.72;4921742;28;20162;-85
2023/05/02 05:20:02;;;;;;;29.58;12.50;;;;;;;12.57;80.89;100281.97;4905927;28;20072;-85
2023/05/02 05:22:30;;;;;;;20.67;11.85;;;;;;;12.61;80.46;100274.53;4919441;28;20055;-85
2023/05/02 05:24:57;;;;;;;23.33;12.40;;;;;;;12.64;80.97;100282.25;4933708;28;20123;-85
2023/05/02 05:27:28;;;;;;;24.23;11.70;;;;;;;12.60;80.94;100278.19;4901058;29;20052;-85
2023/05/02 05:29:56;;;;;;;25.15;13.57;;;;;;;12.67;80.88;100286.44;4905368;28;20048;-85
2023/05/02 05:32:24;;;;;;;24.35;12.32;;;;;;;12.66;81.11;100288.28;4933534;28;20052;-84
2023/05/02 05:34:55;;;;;;;26.73;13.23;;;;;;;12.76;80.18;100286.47;4920856;28;20173;-85
2023/05/02 05:37:25;;;;;;;26.80;13.10;;;;;;;12.76;80.37;100294.47;4903583;28;20059;-85
2023/05/02 05:39:52;;;;;;;26.92;13.60;;;;;;;12.75;80.67;100286.63;4921407;28;20107;-85
2023/05/02 05:42:19;;;;;;;24.38;13.80;;;;;;;12.81;80.28;100294.06;4932411;28;20087;-85
2023/05/02 05:44:50;;;;;;;23.83;13.63;;;;;;;12.84;80.18;100299.09;4934037;28;20497;-85
2023/05/02 05:47:23;;;;;;;25.45;13.85;;;;;;;12.81;80.19;100302.06;4936137;28;20059;-85
2023/05/02 05:49:55;;;;;;;29.50;14.55;;;;;;;12.77;80.36;100304.16;4918407;28;20496;-85
2023/05/02 05:52:26;;;;;;;29.73;13.65;;;;;;;12.85;80.07;100303.47;4893920;28;20123;-85
2023/05/02 05:54:55;;;;;;;28.88;13.48;;;;;;;12.82;80.48;100301.94;4935834;28;20139;-85
2023/05/02 05:57:23;;;;;;;27.52;13.93;;;;;;;12.85;80.39;100315.94;4902918;28;20183;-85
2023/05/02 05:59:51;;;;;;;23.35;13.57;;;;;;;12.89;80.09;100315.50;4906807;28;20055;-85
2023/05/02 06:02:19;;;;;;;28.88;13.68;;;;;;;12.96;80.08;100316.66;4899994;28;20422;-85
2023/05/02 06:04:46;;;;;;;30.23;15.35;;;;;;;12.99;80.21;100323.53;4921080;28;20118;-85
2023/05/02 06:07:15;;;;;;;30.38;14.50;;;;;;;12.91;80.78;100321.56;4923209;28;20434;-85
2023/05/02 06:09:44;;;;;;;26.02;14.15;;;;;;;13.03;80.10;100322.28;4918710;28;20523;-85
2023/05/02 06:12:11;;;;;;;27.83;14.10;;;;;;;13.01;80.22;100319.75;4920452;28;20063;-85
2023/05/02 06:14:38;;;;;;;29.08;14.15;;;;;;;13.07;80.45;100323.66;4936192;28;20052;-85
2023/05/02 06:17:05;;;;;;;29.73;13.82;;;;;;;13.06;80.34;100332.66;4928488;28;20198;-85
2023/05/02 06:19:32;;;;;;;27.58;15.23;;;;;;;13.10;80.15;100326.06;4904707;28;20107;-84
2023/05/02 06:21:59;;;;;;;27.77;14.23;;;;;;;13.12;79.95;100334.75;4930785;28;20106;-85
2023/05/02 06:24:26;;;;;;;35.22;15.45;;;;;;;13.10;80.00;100327.88;4941648;28;20075;-85
2023/05/02 06:26:52;;;;;;;32.47;15.52;;;;;;;13.12;80.08;100337.41;4925115;28;20644;-85
2023/05/02 06:29:19;;;;;;;37.15;15.18;;;;;;;13.18;79.74;100336.03;4921317;28;20083;-85
2023/05/02 06:31:46;;;;;;;28.00;14.10;;;;;;;13.21;79.42;100338.41;4920115;28;20054;-85
2023/05/02 06:34:13;;;;;;;26.60;14.63;;;;;;;13.17;79.49;100351.19;4937672;28;20051;-85
2023/05/02 06:36:40;;;;;;;30.77;13.98;;;;;;;13.21;79.53;100349.09;4934182;28;20066;-85
2023/05/02 06:39:07;;;;;;;38.35;17.13;;;;;;;13.25;79.41;100356.69;4933744;28;20356;-85
2023/05/02 06:41:33;;;;;;;28.15;15.40;;;;;;;13.29;78.99;100361.75;4922169;28;20086;-85
2023/05/02 06:44:00;;;;;;;37.83;17.75;;;;;;;13.36;78.68;100365.56;4932151;28;20492;-85
2023/05/02 06:46:29;;;;;;;36.08;16.90;;;;;;;13.33;78.54;100363.13;4921138;28;20055;-85
2023/05/02 06:48:56;;;;;;;31.52;16.48;;;;;;;13.34;78.51;100371.00;4914501;28;20237;-84
2023/05/02 06:51:23;;;;;;;31.52;16.45;;;;;;;13.38;78.38;100371.56;4921010;28;20129;-85
2023/05/02 06:53:50;;;;;;;30.80;16.98;;;;;;;13.45;78.33;100368.19;4936290;28;20059;-85
2023/05/02 06:56:17;;;;;;;32.40;17.25;;;;;;;13.51;78.33;100373.94;4909226;28;20055;-85
2023/05/02 06:58:44;;;;;;;31.80;16.85;;;;;;;13.57;78.24;100381.41;4920629;28;20052;-85
2023/05/02 07:01:11;;;;;;;33.22;18.52;;;;;;;13.64;78.17;100377.19;4934568;28;20134;-85
2023/05/02 07:03:38;;;;;;;37.28;17.30;;;;;;;13.70;77.75;100381.94;4938843;28;20055;-84
2023/05/02 07:06:05;;;;;;;42.17;19.05;;;;;;;13.75;77.60;100379.69;4919590;28;20055;-85
2023/05/02 07:08:32;;;;;;;37.63;17.63;;;;;;;13.84;77.17;100381.50;4917258;28;20427;-86
2023/05/02 07:10:59;;;;;;;49.40;19.63;;;;;;;13.89;77.24;100375.72;4905150;28;20050;-85
2023/05/02 07:13:26;;;;;;;41.60;20.02;;;;;;;13.98;76.96;100380.19;4926752;28;20090;-85
2023/05/02 07:15:53;;;;;;;40.53;19.20;;;;;;;14.09;76.33;100374.72;4923853;28;20054;-85
2023/05/02 07:18:20;;;;;;;36.50;17.42;;;;;;;14.17;76.28;100384.66;4940088;28;20135;-85
2023/05/02 07:20:47;;;;;;;43.28;18.95;;;;;;;14.23;75.92;100378.72;4928581;28;20056;-85
2023/05/02 07:23:14;;;;;;;43.17;20.02;;;;;;;14.31;76.23;100383.34;4939397;28;20047;-85
2023/05/02 07:25:40;;;;;;;36.60;18.42;;;;;;;14.38;75.55;100389.78;4921912;28;20051;-85
2023/05/02 07:28:07;;;;;;;49.47;20.40;;;;;;;14.37;74.65;100393.41;4925299;28;20055;-86
2023/05/02 07:30:34;;;;;;;45.45;20.73;;;;;;;14.36;74.76;100386.41;4917010;28;20181;-86
2023/05/02 07:33:01;;;;;;;44.55;19.25;;;;;;;14.42;74.84;100390.31;4923052;28;20138;-85
2023/05/02 07:35:28;;;;;;;53.05;21.70;;;;;;;14.43;74.32;100387.50;4926240;28;20050;-85
2023/05/02 07:37:55;;;;;;;51.35;21.52;;;;;;;14.47;73.65;100388.03;4926300;28;20342;-85
2023/05/02 07:40:22;;;;;;;51.40;21.55;;;;;;;14.48;73.70;100387.06;4937574;28;20823;-85
2023/05/02 07:42:49;;;;;;;57.85;22.52;;;;;;;14.57;72.84;100385.38;4924962;28;20055;-85
2023/05/02 07:45:16;;;;;;;51.25;22.33;;;;;;;14.53;72.78;100392.84;4938564;28;20056;-87
2023/05/02 07:47:45;;;;;;;59.38;23.33;;;;;;;14.62;72.67;100391.09;4909120;28;20099;-86
2023/05/02 07:50:18;;;;;;;51.25;21.35;;;;;;;14.56;72.17;100384.53;4906315;28;20617;-87
2023/05/02 07:52:57;;;;;;;59.55;24.70;;;;;;;14.56;72.37;100379.19;4874834;28;20055;-87
2023/05/02 07:55:26;;;;;;;59.35;24.40;;;;;;;14.64;71.47;100398.00;4900762;28;20079;-87
2023/05/02 07:57:56;;;;;;;64.88;24.23;;;;;;;14.64;71.39;100384.63;4900476;28;20047;-87
2023/05/02 08:00:26;;;;;;;61.78;24.85;;;;;;;14.62;71.41;100394.63;4915386;28;20094;-86
2023/05/02 08:03:01;;;;;;;62.92;25.50;;;;;;;14.71;71.06;100393.75;4910706;28;20516;-86
2023/05/02 08:05:36;;;;;;;69.15;28.02;;;;;;;14.79;70.14;100398.34;4874251;28;20048;-87
2023/05/02 08:08:06;;;;;;;65.93;27.55;;;;;;;14.69;69.07;100390.38;4892284;28;20547;-86
2023/05/02 08:10:40;;;;;;;66.30;27.55;;;;;;;14.66;68.92;100395.19;4892841;28;20442;-87
2023/05/02 08:13:14;;;;;;;66.00;27.65;;;;;;;14.70;69.37;100405.41;4878792;28;20054;-86
2023/05/02 08:15:45;;;;;;;63.85;26.50;;;;;;;14.75;68.80;100397.78;4881476;28;20071;-87
2023/05/02 08:18:17;;;;;;;68.35;28.70;;;;;;;14.80;68.81;100399.19;4892278;28;20544;-86
2023/05/02 08:20:45;;;;;;;68.68;27.42;;;;;;;14.77;69.48;100409.16;4922039;28;20217;-86
2023/05/02 08:23:15;;;;;;;72.60;27.45;;;;;;;14.78;68.57;100407.34;4898483;28;20508;-87
2023/05/02 08:25:45;;;;;;;67.78;26.73;;;;;;;14.76;68.50;100406.66;4923048;28;20051;-86
2023/05/02 08:28:18;;;;;;;65.35;27.13;;;;;;;14.83;67.99;100407.72;4900321;28;20051;-87
2023/05/02 08:30:47;;;;;;;71.15;28.50;;;;;;;14.83;67.85;100413.06;4893034;28;20043;-87
2023/05/02 08:33:15;;;;;;;77.05;29.13;;;;;;;14.89;67.69;100406.31;4849899;29;20047;-87
2023/05/02 08:35:50;;;;;;;63.20;27.50;;;;;;;14.86;66.93;100409.28;4891508;28;20047;-87
2023/05/02 08:38:26;;;;;;;67.63;28.20;;;;;;;14.96;67.19;100421.59;4908747;28;20570;-87
2023/05/02 08:41:25;;;;;;;70.35;28.65;;;;;;;14.90;65.54;100419.50;4897388;28;20517;-88
2023/05/02 08:43:54;;;;;;;71.60;29.05;;;;;;;14.90;65.34;100421.34;4879421;28;20059;-86
2023/05/02 08:46:25;;;;;;;68.38;27.70;;;;;;;14.91;63.76;100418.53;4892918;28;20063;-86
2023/05/02 08:49:05;;;;;;;70.85;28.27;;;;;;;14.86;64.65;100422.66;4856735;28;20055;-86
2023/05/02 08:51:54;;;;;;;67.65;27.77;;;;;;;14.89;65.89;100431.22;4866611;28;20547;-87
2023/05/02 08:54:35;;;;;;;67.85;26.25;;;;;;;14.92;66.03;100424.72;4856729;28;20095;-87
2023/05/02 08:57:07;;;;;;;67.90;27.80;;;;;;;15.04;66.26;100420.84;4843568;28;20050;-87
2023/05/02 08:59:49;;;;;;;67.63;27.63;;;;;;;15.11;65.49;100426.44;4813927;29;20059;-87
2023/05/02 09:03:01;;;;;;;63.55;26.10;;;;;;;15.13;64.38;100429.78;4889306;28;20079;-87
2023/05/02 09:05:44;;;;;;;66.72;27.55;;;;;;;15.15;64.39;100435.84;4892772;28;20052;-86
2023/05/02 09:08:28;;;;;;;66.85;28.20;;;;;;;15.16;65.38;100433.03;4874172;28;20055;-87
2023/05/02 09:11:04;;;;;;;58.45;26.10;;;;;;;15.26;66.05;100427.59;4886498;28;20523;-87
2023/05/02 09:13:51;;;;;;;;;;;;;;;;;;;;;
2023/05/02 09:16:29;;;;;;;57.92;26.58;;;;;;;15.14;64.26;100439.53;4889588;28;20059;-87
2023/05/02 09:19:00;;;;;;;65.00;26.58;;;;;;;15.12;63.62;100442.34;4883655;28;20064;-87
2023/05/02 09:21:36;;;;;;;61.97;26.85;;;;;;;15.05;63.70;100438.56;4890181;28;20059;-87
2023/05/02 09:24:23;;;;;;;62.63;25.35;;;;;;;15.11;63.45;100447.81;4898966;28;20139;-87
2023/05/02 09:27:03;;;;;;;60.55;25.75;;;;;;;15.05;62.85;100449.28;4875468;28;20528;-87
2023/05/02 09:29:36;;;;;;;59.60;25.88;;;;;;;15.11;64.08;100447.81;4893367;29;20048;-87
2023/05/02 09:32:12;;;;;;;52.28;23.88;;;;;;;15.12;64.63;100445.00;4873073;28;20063;-88
2023/05/02 09:35:06;;;;;;;57.97;23.88;;;;;;;15.17;63.71;100445.41;4894943;28;20056;-87
2023/05/02 09:37:38;;;;;;;55.00;24.42;;;;;;;15.27;62.41;100442.66;4877376;28;20053;-87
2023/05/02 09:40:10;;;;;;;58.42;25.40;;;;;;;15.28;63.41;100451.53;4877339;29;20056;-88
2023/05/02 09:42:46;;;;;;;53.28;23.60;;;;;;;15.35;63.84;100442.75;4896886;28;20051;-88
2023/05/02 09:45:37;;;;;;;48.50;23.70;;;;;;;15.37;62.67;100442.59;4866153;28;20059;-87
2023/05/02 09:48:13;;;;;;;57.00;24.45;;;;;;;15.55;62.69;100437.25;4888446;28;20749;-87
2023/05/02 09:50:44;;;;;;;51.65;24.52;;;;;;;15.52;62.75;100440.22;4893475;28;20062;-88
2023/05/02 09:53:14;;;;;;;53.22;24.13;;;;;;;15.53;62.48;100447.28;4924588;28;20055;-87
2023/05/02 09:56:07;;;;;;;51.10;22.60;;;;;;;15.49;61.36;100456.59;4850991;28;20059;-87
2023/05/02 09:58:41;;;;;;;51.53;21.80;;;;;;;15.51;61.84;100441.22;4840729;28;20083;-87
2023/05/02 10:01:18;;;;;;;54.97;23.98;;;;;;;15.58;61.09;100447.66;4859658;28;20059;-88
2023/05/02 10:03:50;;;;;;;44.20;20.60;;;;;;;15.59;61.17;100447.47;4873450;29;20136;-87
2023/05/02 10:06:27;;;;;;;49.80;23.25;;;;;;;15.59;61.17;100446.66;4852558;28;20047;-87
2023/05/02 10:09:02;;;;;;;48.80;20.92;;;;;;;15.67;61.96;100441.34;4820550;29;20070;-87
2023/05/02 10:12:09;;;;;;;48.13;22.02;;;;;;;15.68;61.56;100440.38;4852536;29;20472;-88
2023/05/02 10:14:42;;;;;;;;;;;;;;;15.54;60.32;100455.13;4835548;28;20055;-88
2023/05/02 10:17:15;;;;;;;47.72;21.52;;;;;;;15.65;61.37;100446.06;4875954;29;19942;-87
2023/05/02 10:20:04;;;;;;;52.95;22.58;;;;;;;15.59;61.05;100441.28;4859232;28;20047;-88
2023/05/02 10:22:35;;;;;;;48.30;22.73;;;;;;;15.67;61.64;100457.44;4864283;28;20051;-87
2023/05/02 10:25:07;;;;;;;49.17;21.75;;;;;;;15.58;61.31;100453.84;4909350;28;20064;-87
2023/05/02 10:27:38;;;;;;;46.08;21.90;;;;;;;15.54;60.74;100459.66;4891929;28;20063;-86
2023/05/02 10:30:08;;;;;;;51.10;23.38;;;;;;;15.49;60.03;100467.28;4906571;28;22707;-87
2023/05/02 10:32:41;;;;;;;46.90;22.02;;;;;;;15.33;59.31;100457.28;4921557;28;20352;-88
2023/05/02 10:35:08;;;;;;;48.03;21.48;;;;;;;15.33;59.34;100462.63;4867374;29;20062;-88
2023/05/02 10:37:40;;;;;;;44.38;19.52;;;;;;;15.36;59.99;100462.31;4893119;28;20043;-87
2023/05/02 10:40:10;;;;;;;44.05;20.77;;;;;;;15.38;60.15;100446.97;4903721;28;20074;-87
2023/05/02 10:42:50;;;;;;;43.72;20.88;;;;;;;15.35;59.60;100457.97;4872512;28;20054;-87
2023/05/02 10:45:50;;;;;;;41.63;19.20;;;;;;;15.39;60.19;100454.84;4816145;29;20601;-87
2023/05/02 10:48:38;;;;;;;44.42;18.13;;;;;;;15.43;60.99;100458.03;4884399;28;20056;-87
2023/05/02 10:51:13;;;;;;;42.90;18.98;;;;;;;15.46;60.96;100451.53;4927970;28;20076;-87
2023/05/02 10:53:42;;;;;;;43.42;19.23;;;;;;;15.52;60.23;100461.63;4905415;28;20058;-87
2023/05/02 10:56:22;;;;;;;49.85;20.33;;;;;;;15.28;59.74;100447.00;4912569;28;20055;-87
2023/05/02 10:59:32;;;;;;;43.33;19.90;;;;;;;15.29;60.12;100467.44;4885960;28;20047;-87
2023/05/02 11:02:26;;;;;;;43.00;18.85;;;;;;;15.28;60.93;100459.56;4888365;28;20513;-87
2023/05/02 11:05:04;;;;;;;43.03;18.70;;;;;;;15.34;60.98;100461.63;4886869;28;20499;-87
2023/05/02 11:07:45;;;;;;;39.65;18.08;;;;;;;15.20;60.91;100458.47;4886296;28;20126;-87
2023/05/02 11:10:25;;;;;;;43.85;18.05;;;;;;;15.26;60.93;100465.06;4887358;28;20102;-87
2023/05/02 11:12:56;;;;;;;57.13;22.17;;;;;;;15.19;61.29;100466.66;4866457;28;20408;-87
2023/05/02 11:15:28;;;;;;;47.22;20.55;;;;;;;15.15;60.63;100470.63;4898836;28;20561;-87
2023/05/02 11:18:11;;;;;;;44.30;19.88;;;;;;;15.15;60.82;100457.25;4908133;28;20067;-87
2023/05/02 11:20:49;;;;;;;46.00;19.38;;;;;;;15.22;61.22;100469.03;4889667;28;20125;-87
2023/05/02 11:23:28;;;;;;;40.88;19.55;;;;;;;15.24;61.10;100467.06;4896892;28;20054;-87
2023/05/02 11:26:02;;;;;;;40.90;18.50;;;;;;;15.33;60.88;100455.44;4918338;28;20092;-87
2023/05/02 11:28:40;;;;;;;46.53;20.02;;;;;;;15.45;61.61;100456.06;4873209;28;20047;-87
2023/05/02 11:31:25;;;;;;;41.55;19.13;;;;;;;15.56;60.36;100457.66;4879778;28;20055;-87
2023/05/02 11:33:56;;;;;;;53.70;20.67;;;;;;;15.63;60.88;100459.56;4896143;28;20051;-87